createdAt,value
2023-03-15T00:00:02.314Z,460.00
2023-03-15T00:01:02.395Z,460.00
2023-03-15T00:02:02.466Z,460.00
2023-03-15T00:03:02.546Z,459.00
2023-03-15T00:04:02.608Z,461.00
2023-03-15T00:05:02.583Z,460.00
2023-03-15T00:06:02.629Z,460.00
2023-03-15T00:07:02.699Z,461.00
2023-03-15T00:08:04.467Z,461.00
2023-03-15T00:09:02.809Z,461.00
2023-03-15T00:10:02.861Z,461.00
2023-03-15T00:11:02.926Z,460.00
2023-03-15T00:12:02.957Z,459.00
2023-03-15T00:13:02.997Z,457.00
2023-03-15T00:14:03.072Z,457.00
2023-03-15T00:15:03.149Z,458.00
2023-03-15T00:16:03.279Z,460.00
2023-03-15T00:17:03.213Z,460.00
2023-03-15T00:18:03.274Z,459.00
2023-03-15T00:19:03.337Z,458.00
2023-03-15T00:20:03.373Z,456.00
2023-03-15T00:21:03.440Z,457.00
2023-03-15T00:22:03.453Z,455.00
2023-03-15T00:23:03.525Z,454.00
2023-03-15T00:24:03.536Z,455.00
2023-03-15T00:25:03.564Z,456.00
2023-03-15T00:26:03.576Z,460.00
2023-03-15T00:27:03.615Z,461.00
2023-03-15T00:28:03.656Z,462.00
2023-03-15T00:29:03.665Z,461.00
2023-03-15T00:30:03.715Z,460.00
2023-03-15T00:31:03.770Z,461.00
2023-03-15T00:32:03.782Z,461.00
2023-03-15T00:33:03.825Z,459.00
2023-03-15T00:34:03.895Z,459.00
2023-03-15T00:35:03.930Z,461.00
2023-03-15T00:36:04.058Z,462.00
2023-03-15T00:37:04.003Z,465.00
2023-03-15T00:38:04.076Z,464.00
2023-03-15T00:39:04.085Z,461.00
2023-03-15T00:40:04.154Z,462.00
2023-03-15T00:42:04.263Z,462.00
2023-03-15T00:43:04.321Z,462.00
2023-03-15T00:44:04.417Z,463.00
2023-03-15T00:45:04.422Z,463.00
2023-03-15T00:46:04.597Z,462.00
2023-03-15T00:47:04.574Z,461.00
2023-03-15T00:48:04.603Z,460.00
2023-03-15T00:49:04.633Z,459.00
2023-03-15T00:51:04.789Z,463.00
2023-03-15T00:52:04.835Z,462.00
2023-03-15T00:53:04.844Z,461.00
2023-03-15T00:54:04.891Z,460.00
2023-03-15T00:55:04.935Z,459.00
2023-03-15T00:56:05.028Z,458.00
2023-03-15T00:57:05.063Z,456.00
2023-03-15T00:58:05.073Z,456.00
2023-03-15T00:59:05.121Z,456.00
2023-03-15T01:00:05.162Z,454.00
2023-03-15T01:01:05.192Z,454.00
2023-03-15T01:02:05.369Z,457.00
2023-03-15T01:03:05.347Z,457.00
2023-03-15T01:04:05.394Z,459.00
2023-03-15T01:05:05.466Z,458.00
2023-03-15T01:06:05.484Z,457.00
2023-03-15T01:07:05.555Z,457.00
2023-03-15T01:08:05.601Z,457.00
2023-03-15T01:09:05.747Z,457.00
2023-03-15T01:10:05.761Z,457.00
2023-03-15T01:11:05.728Z,457.00
2023-03-15T01:12:05.757Z,456.00
2023-03-15T01:13:05.811Z,455.00
2023-03-15T01:14:05.861Z,455.00
2023-03-15T01:15:05.921Z,454.00
2023-03-15T01:16:06.001Z,455.00
2023-03-15T01:17:06.012Z,459.00
2023-03-15T01:18:06.001Z,460.00
2023-03-15T01:19:06.074Z,460.00
2023-03-15T01:20:06.121Z,459.00
2023-03-15T01:21:06.132Z,457.00
2023-03-15T01:22:06.201Z,457.00
2023-03-15T01:23:06.228Z,454.00
2023-03-15T01:24:06.306Z,456.00
2023-03-15T01:25:06.329Z,456.00
2023-03-15T01:26:06.422Z,456.00
2023-03-15T01:27:06.487Z,452.00
2023-03-15T01:28:06.510Z,453.00
2023-03-15T01:29:06.572Z,452.00
2023-03-15T01:30:06.646Z,450.00
2023-03-15T01:31:06.775Z,446.00
2023-03-15T01:32:06.752Z,448.00
2023-03-15T01:33:06.841Z,449.00
2023-03-15T01:34:06.876Z,450.00
2023-03-15T01:35:06.896Z,449.00
2023-03-15T01:36:06.989Z,453.00
2023-03-15T01:37:06.972Z,455.00
2023-03-15T01:38:07.045Z,453.00
2023-03-15T01:39:07.064Z,452.00
2023-03-15T01:41:07.160Z,451.00
2023-03-15T01:42:07.196Z,450.00
2023-03-15T01:43:07.279Z,450.00
2023-03-15T01:44:07.336Z,450.00
2023-03-15T01:45:07.401Z,451.00
2023-03-15T01:46:07.488Z,450.00
2023-03-15T01:47:07.572Z,449.00
2023-03-15T01:48:07.584Z,444.00
2023-03-15T01:49:07.632Z,444.00
2023-03-15T01:50:07.713Z,445.00
2023-03-15T01:51:07.770Z,448.00
2023-03-15T01:52:07.802Z,448.00
2023-03-15T01:53:07.850Z,447.00
2023-03-15T01:54:08.008Z,446.00
2023-03-15T01:55:07.928Z,446.00
2023-03-15T01:56:07.991Z,446.00
2023-03-15T01:57:08.027Z,447.00
2023-03-15T01:58:08.078Z,448.00
2023-03-15T01:59:08.108Z,448.00
2023-03-15T02:00:08.180Z,449.00
2023-03-15T02:01:08.235Z,452.00
2023-03-15T02:02:08.333Z,452.00
2023-03-15T02:03:08.278Z,452.00
2023-03-15T02:04:08.286Z,452.00
2023-03-15T02:05:08.368Z,453.00
2023-03-15T02:06:08.389Z,452.00
2023-03-15T02:07:08.399Z,453.00
2023-03-15T02:08:08.435Z,453.00
2023-03-15T02:09:08.484Z,454.00
2023-03-15T02:10:08.541Z,456.00
2023-03-15T02:11:08.556Z,454.00
2023-03-15T02:12:08.625Z,453.00
2023-03-15T02:13:08.673Z,455.00
2023-03-15T02:14:08.704Z,453.00
2023-03-15T02:15:08.735Z,452.00
2023-03-15T02:18:08.888Z,459.00
2023-03-15T02:19:08.897Z,461.00
2023-03-15T02:21:08.967Z,456.00
2023-03-15T02:22:09.016Z,455.00
2023-03-15T03:20:11.762Z,452.00
2023-03-15T03:21:11.714Z,451.00
2023-03-15T03:22:11.750Z,448.00
2023-03-15T03:23:11.774Z,448.00
2023-03-15T03:24:11.782Z,447.00
2023-03-15T03:25:11.846Z,447.00
2023-03-15T03:26:11.858Z,447.00
2023-03-15T03:27:11.871Z,449.00
2023-03-15T03:28:11.890Z,450.00
2023-03-15T03:29:11.941Z,450.00
2023-03-15T03:30:12.017Z,448.00
2023-03-15T03:31:12.037Z,450.00
2023-03-15T03:32:12.004Z,449.00
2023-03-15T03:33:12.079Z,447.00
2023-03-15T03:34:12.082Z,445.00
2023-03-15T03:35:13.563Z,444.00
2023-03-15T03:36:12.343Z,444.00
2023-03-15T03:37:12.368Z,442.00
2023-03-15T03:38:12.392Z,442.00
2023-03-15T03:39:12.422Z,442.00
2023-03-15T03:40:12.469Z,444.00
2023-03-15T03:41:12.536Z,443.00
2023-03-15T03:42:12.538Z,442.00
2023-03-15T03:43:12.599Z,444.00
2023-03-15T03:44:12.635Z,445.00
2023-03-15T03:45:12.682Z,446.00
2023-03-15T03:46:12.717Z,443.00
2023-03-15T03:47:12.736Z,443.00
2023-03-15T03:48:12.767Z,444.00
2023-03-15T03:49:12.795Z,444.00
2023-03-15T03:50:12.800Z,443.00
2023-03-15T03:51:12.835Z,442.00
2023-03-15T03:52:12.986Z,441.00
2023-03-15T03:53:12.933Z,442.00
2023-03-15T03:54:12.984Z,441.00
2023-03-15T03:55:12.994Z,441.00
2023-03-15T03:56:13.062Z,439.00
2023-03-15T03:57:13.152Z,437.00
2023-03-15T03:58:13.214Z,439.00
2023-03-15T03:59:13.273Z,440.00
2023-03-15T04:00:13.345Z,442.00
2023-03-15T04:01:13.369Z,441.00
2023-03-15T04:02:13.454Z,441.00
2023-03-15T04:03:13.411Z,440.00
2023-03-15T04:04:13.446Z,438.00
2023-03-15T04:05:13.546Z,438.00
2023-03-15T04:06:13.572Z,437.00
2023-03-15T04:07:14.915Z,438.00
2023-03-15T04:08:13.657Z,439.00
2023-03-15T04:09:13.655Z,440.00
2023-03-15T04:10:13.652Z,441.00
2023-03-15T04:11:13.641Z,443.00
2023-03-15T04:12:13.677Z,444.00
2023-03-15T04:13:13.658Z,445.00
2023-03-15T04:14:13.652Z,446.00
2023-03-15T04:15:13.679Z,447.00
2023-03-15T04:16:13.783Z,447.00
2023-03-15T04:17:13.675Z,448.00
2023-03-15T04:18:13.672Z,448.00
2023-03-15T04:19:13.683Z,449.00
2023-03-15T04:20:13.702Z,448.00
2023-03-15T04:21:13.714Z,446.00
2023-03-15T04:22:13.722Z,448.00
2023-03-15T04:23:13.726Z,447.00
2023-03-15T04:24:13.700Z,447.00
2023-03-15T04:25:13.718Z,444.00
2023-03-15T04:26:13.722Z,444.00
2023-03-15T04:27:13.733Z,443.00
2023-03-15T04:28:13.727Z,444.00
2023-03-15T04:29:13.701Z,442.00
2023-03-15T04:30:13.733Z,442.00
2023-03-15T04:31:13.792Z,441.00
2023-03-15T04:32:13.741Z,445.00
2023-03-15T04:33:13.775Z,448.00
2023-03-15T04:34:13.739Z,445.00
2023-03-15T04:35:13.771Z,448.00
2023-03-15T04:36:13.753Z,448.00
2023-03-15T04:37:13.783Z,444.00
2023-03-15T04:38:13.787Z,443.00
2023-03-15T04:39:13.801Z,445.00
2023-03-15T04:40:13.779Z,446.00
2023-03-15T04:41:13.811Z,445.00
2023-03-15T04:42:13.793Z,446.00
2023-03-15T04:43:13.814Z,446.00
2023-03-15T04:44:13.793Z,447.00
2023-03-15T04:45:13.805Z,446.00
2023-03-15T04:46:13.826Z,448.00
2023-03-15T04:47:13.810Z,448.00
2023-03-15T04:48:13.797Z,447.00
2023-03-15T04:49:13.807Z,448.00
2023-03-15T04:50:13.810Z,448.00
2023-03-15T04:51:13.792Z,450.00
2023-03-15T04:52:13.813Z,452.00
2023-03-15T04:53:13.819Z,453.00
2023-03-15T04:54:13.799Z,455.00
2023-03-15T04:55:13.775Z,453.00
2023-03-15T04:56:13.821Z,453.00
2023-03-15T04:57:13.827Z,452.00
2023-03-15T04:58:13.790Z,453.00
2023-03-15T04:59:13.816Z,453.00
2023-03-15T05:00:13.824Z,453.00
2023-03-15T05:01:13.855Z,455.00
2023-03-15T05:02:13.886Z,455.00
2023-03-15T05:03:13.787Z,455.00
2023-03-15T05:04:13.808Z,455.00
2023-03-15T05:05:13.810Z,454.00
2023-03-15T05:06:13.830Z,453.00
2023-03-15T05:07:13.887Z,454.00
2023-03-15T05:08:13.950Z,455.00
2023-03-15T05:09:13.936Z,455.00
2023-03-15T05:10:14.015Z,454.00
2023-03-15T05:11:14.049Z,453.00
2023-03-15T05:12:14.112Z,453.00
2023-03-15T05:13:14.141Z,452.00
2023-03-15T05:14:14.216Z,453.00
2023-03-15T05:15:14.380Z,451.00
2023-03-15T05:16:14.334Z,451.00
2023-03-15T05:17:14.338Z,451.00
2023-03-15T05:18:14.433Z,449.00
2023-03-15T05:19:14.471Z,450.00
2023-03-15T05:20:14.484Z,451.00
2023-03-15T05:21:14.529Z,451.00
2023-03-15T05:22:14.615Z,452.00
2023-03-15T05:23:14.611Z,451.00
2023-03-15T05:24:14.667Z,449.00
2023-03-15T05:25:14.714Z,447.00
2023-03-15T05:26:14.727Z,449.00
2023-03-15T05:27:14.768Z,451.00
2023-03-15T05:28:14.823Z,451.00
2023-03-15T05:29:14.883Z,449.00
2023-03-15T05:30:14.924Z,449.00
2023-03-15T05:31:14.959Z,448.00
2023-03-15T05:32:14.991Z,447.00
2023-03-15T05:33:15.059Z,445.00
2023-03-15T05:34:15.116Z,445.00
2023-03-15T05:35:15.151Z,447.00
2023-03-15T05:36:15.208Z,449.00
2023-03-15T05:37:15.267Z,450.00
2023-03-15T05:38:16.194Z,447.00
2023-03-15T05:39:15.345Z,447.00
2023-03-15T05:40:15.403Z,448.00
2023-03-15T05:41:15.450Z,449.00
2023-03-15T05:42:15.483Z,447.00
2023-03-15T05:43:15.526Z,446.00
2023-03-15T05:44:15.541Z,448.00
2023-03-15T05:45:15.609Z,448.00
2023-03-15T05:46:15.731Z,449.00
2023-03-15T05:47:15.705Z,450.00
2023-03-15T05:48:15.732Z,449.00
2023-03-15T05:49:15.811Z,446.00
2023-03-15T05:50:15.865Z,446.00
2023-03-15T05:51:15.901Z,446.00
2023-03-15T05:52:15.975Z,447.00
2023-03-15T05:53:15.998Z,447.00
2023-03-15T05:54:16.054Z,447.00
2023-03-15T05:55:16.099Z,446.00
2023-03-15T05:56:16.136Z,447.00
2023-03-15T05:57:16.150Z,447.00
2023-03-15T05:58:16.181Z,447.00
2023-03-15T05:59:16.249Z,448.00
2023-03-15T06:00:16.288Z,449.00
2023-03-15T06:01:23.348Z,450.00
2023-03-15T06:02:16.400Z,453.00
2023-03-15T06:03:16.444Z,450.00
2023-03-15T06:04:16.388Z,449.00
2023-03-15T06:05:16.376Z,447.00
2023-03-15T06:06:16.392Z,447.00
2023-03-15T06:07:16.379Z,447.00
2023-03-15T06:08:16.404Z,448.00
2023-03-15T06:09:16.384Z,448.00
2023-03-15T06:10:16.423Z,449.00
2023-03-15T06:11:16.426Z,447.00
2023-03-15T06:12:16.423Z,447.00
2023-03-15T06:13:18.232Z,447.00
2023-03-15T06:14:16.429Z,447.00
2023-03-15T06:15:16.448Z,450.00
2023-03-15T06:16:16.425Z,451.00
2023-03-15T06:17:16.422Z,454.00
2023-03-15T06:18:16.454Z,454.00
2023-03-15T06:19:16.440Z,453.00
2023-03-15T06:20:16.422Z,456.00
2023-03-15T06:21:16.451Z,455.00
2023-03-15T06:22:16.516Z,452.00
2023-03-15T06:23:16.427Z,451.00
2023-03-15T06:24:16.436Z,448.00
2023-03-15T06:25:16.438Z,447.00
2023-03-15T06:26:16.446Z,447.00
2023-03-15T06:27:16.485Z,447.00
2023-03-15T06:28:16.525Z,450.00
2023-03-15T06:29:16.584Z,450.00
2023-03-15T06:30:17.152Z,449.00
2023-03-15T06:31:16.721Z,450.00
2023-03-15T06:32:16.745Z,452.00
2023-03-15T06:33:16.792Z,473.00
2023-03-15T06:34:16.890Z,482.00
2023-03-15T06:35:17.234Z,495.00
2023-03-15T06:36:16.952Z,499.00
2023-03-15T06:37:28.951Z,504.00
2023-03-15T06:38:18.065Z,515.00
2023-03-15T06:39:18.707Z,546.00
2023-03-15T06:40:17.087Z,575.00
2023-03-15T06:41:17.274Z,561.00
2023-03-15T06:42:17.149Z,549.00
2023-03-15T06:43:17.176Z,547.00
2023-03-15T06:44:17.211Z,547.00
2023-03-15T06:45:24.238Z,511.00
2023-03-15T06:47:17.320Z,534.00
2023-03-15T06:48:17.404Z,555.00
2023-03-15T06:49:17.496Z,605.00
2023-03-15T06:50:17.433Z,603.00
2023-03-15T06:51:17.797Z,602.00
2023-03-15T06:52:17.549Z,608.00
2023-03-15T06:53:17.572Z,608.00
2023-03-15T06:54:17.561Z,607.00
2023-03-15T06:55:17.592Z,610.00
2023-03-15T06:56:17.623Z,625.00
2023-03-15T06:57:17.666Z,638.00
2023-03-15T06:58:17.671Z,637.00
2023-03-15T06:59:17.680Z,636.00
2023-03-15T07:00:17.687Z,637.00
2023-03-15T07:01:17.744Z,634.00
2023-03-15T07:02:17.802Z,635.00
2023-03-15T07:03:17.931Z,638.00
2023-03-15T07:04:17.818Z,693.00
2023-03-15T07:05:17.793Z,697.00
2023-03-15T07:06:17.832Z,713.00
2023-03-15T07:07:17.783Z,731.00
2023-03-15T07:08:17.788Z,750.00
2023-03-15T07:09:17.813Z,774.00
2023-03-15T07:10:17.867Z,791.00
2023-03-15T07:11:17.873Z,807.00
2023-03-15T07:12:17.838Z,816.00
2023-03-15T07:13:17.845Z,819.00
2023-03-15T07:14:17.892Z,862.00
2023-03-15T07:15:17.842Z,877.00
2023-03-15T07:16:17.894Z,882.00
2023-03-15T07:17:17.838Z,893.00
2023-03-15T07:18:17.847Z,926.00
2023-03-15T07:19:17.864Z,963.00
2023-03-15T07:20:17.831Z,970.00
2023-03-15T07:21:17.826Z,1000.00
2023-03-15T07:22:17.838Z,1014.00
2023-03-15T07:23:17.863Z,1021.00
2023-03-15T07:24:17.856Z,1046.00
2023-03-15T07:25:17.833Z,1063.00
2023-03-15T07:26:17.812Z,1054.00
2023-03-15T07:27:19.416Z,1053.00
2023-03-15T07:28:17.800Z,1057.00
2023-03-15T07:29:17.867Z,1062.00
2023-03-15T07:30:17.927Z,1067.00
2023-03-15T07:31:18.000Z,1067.00
2023-03-15T07:32:18.400Z,1107.00
2023-03-15T07:33:18.093Z,1114.00
2023-03-15T07:34:18.095Z,1125.00
2023-03-15T07:35:18.172Z,1133.00
2023-03-15T07:36:18.178Z,1136.00
2023-03-15T07:37:18.209Z,1143.00
2023-03-15T07:38:18.232Z,1156.00
2023-03-15T07:39:18.392Z,807.00
2023-03-15T07:40:18.640Z,806.00
2023-03-15T07:41:18.353Z,800.00
2023-03-15T07:42:18.795Z,875.00
2023-03-15T07:43:18.497Z,903.00
2023-03-15T07:44:18.538Z,909.00
2023-03-15T07:45:18.606Z,913.00
2023-03-15T07:46:18.835Z,948.00
2023-03-15T07:47:18.701Z,963.00
2023-03-15T07:48:18.768Z,964.00
2023-03-15T07:49:18.853Z,981.00
2023-03-15T07:50:18.811Z,994.00
2023-03-15T07:51:18.816Z,1011.00
2023-03-15T07:52:19.281Z,1031.00
2023-03-15T07:53:18.918Z,1048.00
2023-03-15T07:54:18.904Z,1062.00
2023-03-15T07:55:18.922Z,1073.00
2023-03-15T07:56:19.862Z,1086.00
2023-03-15T07:57:18.993Z,1097.00
2023-03-15T07:58:20.421Z,1122.00
2023-03-15T07:59:19.048Z,1178.00
2023-03-15T08:00:19.093Z,1172.00
2023-03-15T08:01:19.121Z,1174.00
2023-03-15T08:02:19.219Z,1169.00
2023-03-15T08:03:19.265Z,1169.00
2023-03-15T08:05:19.327Z,1247.00
2023-03-15T08:06:19.364Z,1229.00
2023-03-15T08:07:19.790Z,1234.00
2023-03-15T08:08:19.427Z,1242.00
2023-03-15T08:09:19.455Z,1253.00
2023-03-15T08:11:19.540Z,1264.00
2023-03-15T08:12:19.616Z,1268.00
2023-03-15T08:13:19.585Z,1263.00
2023-03-15T08:14:19.614Z,1271.00
2023-03-15T08:15:19.660Z,1276.00
2023-03-15T08:16:19.726Z,1283.00
2023-03-15T08:17:19.704Z,1289.00
2023-03-15T08:18:19.784Z,1297.00
2023-03-15T08:19:19.793Z,1355.00
2023-03-15T08:20:19.848Z,1325.00
2023-03-15T08:21:19.815Z,1332.00
2023-03-15T08:22:19.832Z,1380.00
2023-03-15T08:23:19.860Z,1458.00
2023-03-15T08:24:19.895Z,1423.00
2023-03-15T08:25:19.920Z,1430.00
2023-03-15T08:26:19.917Z,1430.00
2023-03-15T08:27:19.919Z,1438.00
2023-03-15T08:28:19.925Z,1445.00
2023-03-15T08:29:19.979Z,1451.00
2023-03-15T08:30:19.980Z,1453.00
2023-03-15T08:31:20.002Z,1403.00
2023-03-15T08:32:20.052Z,813.00
2023-03-15T08:33:20.026Z,691.00
2023-03-15T08:37:20.335Z,567.00
2023-03-15T08:38:20.284Z,560.00
2023-03-15T08:39:20.334Z,558.00
2023-03-15T08:40:20.410Z,560.00
2023-03-15T09:00:21.691Z,812.00
2023-03-15T09:01:21.675Z,826.00
2023-03-15T09:02:21.724Z,831.00
2023-03-15T09:03:21.737Z,831.00
2023-03-15T09:04:21.936Z,838.00
2023-03-15T09:05:21.758Z,849.00
2023-03-15T09:06:22.067Z,855.00
2023-03-15T09:07:21.817Z,861.00
2023-03-15T09:08:21.830Z,866.00
2023-03-15T09:09:21.833Z,875.00
2023-03-15T09:10:21.878Z,886.00
2023-03-15T09:11:21.924Z,890.00
2023-03-15T09:12:22.304Z,899.00
2023-03-15T09:13:22.030Z,910.00
2023-03-15T09:14:22.068Z,917.00
2023-03-15T09:15:22.134Z,824.00
2023-03-15T09:16:22.190Z,815.00
2023-03-15T09:17:22.159Z,808.00
2023-03-15T09:18:22.228Z,811.00
2023-03-15T09:19:22.206Z,755.00
2023-03-15T09:20:22.240Z,738.00
2023-03-15T09:21:22.267Z,700.00
2023-03-15T09:22:38.450Z,685.00
2023-03-15T09:23:23.306Z,677.00
2023-03-15T09:24:22.292Z,744.00
2023-03-15T09:25:22.292Z,697.00
2023-03-15T09:26:22.314Z,687.00
2023-03-15T09:27:22.311Z,683.00
2023-03-15T09:28:22.344Z,679.00
2023-03-15T09:29:22.277Z,682.00
2023-03-15T09:30:22.325Z,671.00
2023-03-15T09:31:22.538Z,660.00
2023-03-15T09:32:22.375Z,564.00
2023-03-15T09:33:22.831Z,522.00
2023-03-15T09:34:23.529Z,495.00
2023-03-15T09:35:22.603Z,485.00
2023-03-15T09:36:22.590Z,488.00
2023-03-15T09:37:23.139Z,486.00
2023-03-15T09:38:23.647Z,482.00
2023-03-15T09:39:23.020Z,473.00
2023-03-15T09:40:23.021Z,468.00
2023-03-15T09:41:23.411Z,463.00
2023-03-15T09:42:23.018Z,461.00
2023-03-15T09:43:23.434Z,459.00
2023-03-15T09:44:23.116Z,457.00
2023-03-15T09:45:23.110Z,450.00
2023-03-15T09:46:23.202Z,449.00
2023-03-15T09:47:23.380Z,445.00
2023-03-15T09:48:23.241Z,447.00
2023-03-15T09:49:23.279Z,449.00
2023-03-15T09:50:23.492Z,457.00
2023-03-15T09:51:23.436Z,473.00
2023-03-15T09:52:23.493Z,510.00
2023-03-15T09:53:23.506Z,555.00
2023-03-15T09:54:23.600Z,559.00
2023-03-15T09:55:23.674Z,530.00
2023-03-15T09:56:23.829Z,524.00
2023-03-15T09:57:23.859Z,539.00
2023-03-15T09:58:24.343Z,561.00
2023-03-15T09:59:23.973Z,570.00
2023-03-15T10:00:24.084Z,582.00
2023-03-15T10:01:24.163Z,593.00
2023-03-15T10:02:24.147Z,606.00
2023-03-15T10:03:24.360Z,675.00
2023-03-15T10:04:24.286Z,686.00
2023-03-15T10:05:24.307Z,686.00
2023-03-15T10:06:24.436Z,659.00
2023-03-15T10:07:24.429Z,635.00
2023-03-15T10:08:24.495Z,629.00
2023-03-15T10:09:24.551Z,630.00
2023-03-15T10:10:24.534Z,628.00
2023-03-15T10:11:24.626Z,629.00
2023-03-15T10:12:24.639Z,631.00
2023-03-15T10:13:24.674Z,632.00
2023-03-15T10:14:24.702Z,633.00
2023-03-15T10:15:24.719Z,631.00
2023-03-15T10:16:24.805Z,629.00
2023-03-15T10:17:24.800Z,628.00
2023-03-15T10:18:25.356Z,628.00
2023-03-15T10:19:24.917Z,628.00
2023-03-15T10:20:24.946Z,627.00
2023-03-15T10:21:24.963Z,623.00
2023-03-15T10:22:25.058Z,620.00
2023-03-15T10:24:25.166Z,616.00
2023-03-15T10:25:25.190Z,612.00
2023-03-15T10:26:25.283Z,610.00
2023-03-15T10:27:25.312Z,608.00
2023-03-15T10:28:25.874Z,606.00
2023-03-15T10:29:25.424Z,604.00
2023-03-15T10:30:25.490Z,604.00
2023-03-15T10:31:41.096Z,604.00
2023-03-15T10:32:26.591Z,601.00
2023-03-15T10:33:25.555Z,600.00
2023-03-15T10:34:25.568Z,599.00
2023-03-15T10:35:25.595Z,597.00
2023-03-15T10:36:25.649Z,594.00
2023-03-15T10:37:25.578Z,590.00
2023-03-15T10:38:25.554Z,587.00
2023-03-15T10:39:25.609Z,589.00
2023-03-15T10:40:25.584Z,586.00
2023-03-15T10:41:29.105Z,584.00
2023-03-15T10:42:25.623Z,585.00
2023-03-15T10:43:25.577Z,576.00
2023-03-15T10:44:25.866Z,573.00
2023-03-15T10:45:25.607Z,563.00
2023-03-15T10:46:25.657Z,558.00
2023-03-15T10:47:25.632Z,627.00
2023-03-15T10:48:25.689Z,651.00
2023-03-15T10:49:25.855Z,649.00
2023-03-15T10:50:25.708Z,664.00
2023-03-15T10:51:25.702Z,651.00
2023-03-15T10:52:25.699Z,643.00
2023-03-15T10:53:25.713Z,698.00
2023-03-15T10:54:25.766Z,713.00
2023-03-15T10:55:25.782Z,703.00
2023-03-15T10:56:25.775Z,708.00
2023-03-15T10:57:25.795Z,714.00
2023-03-15T10:58:25.967Z,738.00
2023-03-15T10:59:25.764Z,774.00
2023-03-15T11:00:25.844Z,842.00
2023-03-15T11:01:26.403Z,841.00
2023-03-15T11:02:25.855Z,829.00
2023-03-15T11:03:25.822Z,824.00
2023-03-15T11:04:26.878Z,860.00
2023-03-15T11:05:25.822Z,869.00
2023-03-15T11:06:25.865Z,867.00
2023-03-15T11:07:25.900Z,886.00
2023-03-15T11:08:25.815Z,903.00
2023-03-15T11:09:25.826Z,890.00
2023-03-15T11:10:25.848Z,888.00
2023-03-15T11:11:25.884Z,843.00
2023-03-15T11:12:25.887Z,825.00
2023-03-15T11:13:25.881Z,910.00
2023-03-15T11:14:25.888Z,895.00
2023-03-15T11:15:26.126Z,858.00
2023-03-15T11:16:26.394Z,863.00
2023-03-15T11:17:26.266Z,887.00
2023-03-15T11:18:26.070Z,886.00
2023-03-15T11:19:26.126Z,886.00
2023-03-15T11:20:26.166Z,850.00
2023-03-15T11:21:26.226Z,828.00
2023-03-15T11:22:26.252Z,819.00
2023-03-15T11:23:26.334Z,857.00
2023-03-15T11:24:26.944Z,886.00
2023-03-15T11:25:26.422Z,804.00
2023-03-15T11:26:32.561Z,804.00
2023-03-15T11:27:27.457Z,828.00
2023-03-15T11:28:26.465Z,850.00
2023-03-15T11:29:26.857Z,863.00
2023-03-15T11:30:26.484Z,864.00
2023-03-15T11:31:26.505Z,818.00
2023-03-15T11:32:26.544Z,790.00
2023-03-15T11:33:26.502Z,774.00
2023-03-15T11:34:26.896Z,794.00
2023-03-15T11:35:26.526Z,865.00
2023-03-15T11:36:26.531Z,893.00
2023-03-15T11:37:26.501Z,782.00
2023-03-15T11:38:26.494Z,705.00
2023-03-15T11:39:26.889Z,684.00
2023-03-15T11:40:26.563Z,766.00
2023-03-15T11:41:26.665Z,785.00
2023-03-15T11:42:26.627Z,818.00
2023-03-15T11:43:26.692Z,783.00
2023-03-15T11:44:27.399Z,828.00
2023-03-15T11:45:26.758Z,819.00
2023-03-15T11:46:26.748Z,824.00
2023-03-15T11:47:26.805Z,825.00
2023-03-15T11:48:26.821Z,827.00
2023-03-15T11:49:27.385Z,832.00
2023-03-15T11:50:26.921Z,834.00
2023-03-15T11:51:26.976Z,834.00
2023-03-15T11:52:27.049Z,835.00
2023-03-15T11:53:27.073Z,835.00
2023-03-15T11:54:27.136Z,834.00
2023-03-15T11:55:27.170Z,834.00
2023-03-15T11:56:27.203Z,837.00
2023-03-15T11:57:27.251Z,839.00
2023-03-15T11:58:27.274Z,840.00
2023-03-15T11:59:27.297Z,839.00
2023-03-15T12:00:27.333Z,839.00
2023-03-15T12:01:27.337Z,836.00
2023-03-15T12:02:27.477Z,834.00
2023-03-15T12:03:27.382Z,831.00
2023-03-15T12:04:27.447Z,831.00
2023-03-15T12:05:27.439Z,826.00
2023-03-15T12:06:27.444Z,826.00
2023-03-15T12:07:27.472Z,825.00
2023-03-15T12:08:27.506Z,821.00
2023-03-15T12:09:27.530Z,817.00
2023-03-15T12:10:27.586Z,812.00
2023-03-15T12:11:27.626Z,809.00
2023-03-15T12:12:27.590Z,808.00
2023-03-15T12:13:27.640Z,809.00
2023-03-15T12:14:27.626Z,806.00
2023-03-15T12:15:27.717Z,805.00
2023-03-15T12:16:28.418Z,800.00
2023-03-15T12:17:27.721Z,795.00
2023-03-15T12:18:27.765Z,789.00
2023-03-15T12:19:27.820Z,762.00
2023-03-15T12:20:27.851Z,754.00
2023-03-15T12:21:27.867Z,756.00
2023-03-15T12:22:27.925Z,752.00
2023-03-15T12:23:27.970Z,750.00
2023-03-15T12:24:27.948Z,748.00
2023-03-15T12:25:27.993Z,693.00
2023-03-15T12:26:28.039Z,671.00
2023-03-15T12:27:28.045Z,661.00
2023-03-15T12:28:28.116Z,661.00
2023-03-15T12:30:28.218Z,667.00
2023-03-15T12:31:28.206Z,670.00
2023-03-15T12:32:28.248Z,674.00
2023-03-15T12:33:28.270Z,686.00
2023-03-15T12:34:28.400Z,704.00
2023-03-15T13:55:31.902Z,515.00
2023-03-15T13:59:31.667Z,518.00
2023-03-15T14:00:31.736Z,513.00
2023-03-15T14:01:31.775Z,512.00
2023-03-15T14:02:31.788Z,513.00
2023-03-15T14:03:31.834Z,515.00
2023-03-15T14:04:31.941Z,513.00
2023-03-15T14:05:31.914Z,510.00
2023-03-15T14:06:31.988Z,512.00
2023-03-15T14:07:32.057Z,513.00
2023-03-15T14:08:32.089Z,510.00
2023-03-15T14:09:32.083Z,509.00
2023-03-15T14:10:32.134Z,511.00
2023-03-15T14:11:32.186Z,511.00
2023-03-15T14:12:32.216Z,511.00
2023-03-15T14:13:32.265Z,511.00
2023-03-15T14:14:32.329Z,510.00
2023-03-15T14:15:32.382Z,509.00
2023-03-15T14:16:32.450Z,511.00
2023-03-15T14:17:32.474Z,513.00
2023-03-15T14:18:32.516Z,512.00
2023-03-15T14:19:32.513Z,510.00
2023-03-15T14:20:32.955Z,508.00
2023-03-15T14:21:32.588Z,507.00
2023-03-15T14:22:32.646Z,508.00
2023-03-15T14:23:32.624Z,507.00
2023-03-15T14:24:32.681Z,506.00
2023-03-15T14:25:32.723Z,506.00
2023-03-15T14:26:32.739Z,507.00
2023-03-15T14:27:32.774Z,507.00
2023-03-15T14:28:32.804Z,507.00
2023-03-15T14:29:32.853Z,508.00
2023-03-15T14:30:32.940Z,508.00
2023-03-15T14:31:32.982Z,509.00
2023-03-15T14:32:33.051Z,507.00
2023-03-15T14:33:33.023Z,506.00
2023-03-15T14:34:33.054Z,506.00
2023-03-15T14:35:33.147Z,506.00
2023-03-15T14:36:33.150Z,504.00
2023-03-15T14:37:33.188Z,505.00
2023-03-15T14:38:33.229Z,505.00
2023-03-15T14:39:33.231Z,504.00
2023-03-15T14:40:33.298Z,502.00
2023-03-15T14:41:33.399Z,500.00
2023-03-15T14:42:33.349Z,499.00
2023-03-15T14:43:33.411Z,501.00
2023-03-15T14:44:33.406Z,501.00
2023-03-15T14:45:33.462Z,503.00
2023-03-15T14:46:33.524Z,501.00
2023-03-15T14:47:36.232Z,498.00
2023-03-15T14:48:34.529Z,496.00
2023-03-15T14:49:33.523Z,496.00
2023-03-15T14:50:33.526Z,495.00
2023-03-15T14:51:33.519Z,492.00
2023-03-15T14:52:33.520Z,491.00
2023-03-15T14:53:33.539Z,491.00
2023-03-15T14:54:33.499Z,492.00
2023-03-15T14:55:33.559Z,494.00
2023-03-15T14:56:33.526Z,497.00
2023-03-15T14:57:33.518Z,497.00
2023-03-15T14:58:33.502Z,498.00
2023-03-15T14:59:33.539Z,498.00
2023-03-15T15:00:33.574Z,499.00
2023-03-15T15:01:33.565Z,497.00
2023-03-15T15:02:33.600Z,498.00
2023-03-15T15:03:33.570Z,499.00
2023-03-15T15:04:33.619Z,498.00
2023-03-15T15:05:33.640Z,499.00
2023-03-15T15:06:33.659Z,500.00
2023-03-15T15:07:33.733Z,499.00
2023-03-15T15:08:33.738Z,499.00
2023-03-15T15:09:33.764Z,497.00
2023-03-15T15:10:33.837Z,495.00
2023-03-15T15:11:33.852Z,495.00
2023-03-15T15:12:33.910Z,491.00
2023-03-15T15:13:34.002Z,493.00
2023-03-15T15:14:34.025Z,496.00
2023-03-15T15:15:47.351Z,504.00
2023-03-15T15:16:35.106Z,496.00
2023-03-15T15:17:34.075Z,495.00
2023-03-15T15:18:34.083Z,494.00
2023-03-15T15:19:34.069Z,492.00